sensor_id;sensor_type;location;lat;lon;timestamp;temperature;humidity
40249;DHT22;25969;49.970;11.062;2022-10-16T04:24:19;16.30;99.90
40249;DHT22;25969;49.970;11.062;2022-10-16T04:34:20;16.40;99.90
40249;DHT22;25969;49.970;11.062;2022-10-16T04:44:20;16.30;99.90
40249;DHT22;25969;49.970;11.062;2022-10-16T04:54:21;16.30;99.90
40249;DHT22;25969;49.970;11.062;2022-10-16T05:04:22;16.60;99.90
40249;DHT22;25969;49.970;11.062;2022-10-16T05:14:22;16.50;99.90
40249;DHT22;25969;49.970;11.062;2022-10-16T05:24:23;16.40;99.90
40249;DHT22;25969;49.970;11.062;2022-10-16T05:34:24;16.40;99.90
40249;DHT22;25969;49.970;11.062;2022-10-16T05:44:25;16.30;99.90
40249;DHT22;25969;49.970;11.062;2022-10-16T05:54:26;16.30;99.90
40249;DHT22;25969;49.970;11.062;2022-10-16T06:04:26;16.40;99.90
40249;DHT22;25969;49.970;11.062;2022-10-16T06:14:27;16.50;99.90
40249;DHT22;25969;49.970;11.062;2022-10-16T06:24:28;16.70;99.90
40249;DHT22;25969;49.970;11.062;2022-10-16T06:34:28;16.80;99.90
40249;DHT22;25969;49.970;11.062;2022-10-16T06:44:29;16.90;99.90
40249;DHT22;25969;49.970;11.062;2022-10-16T06:54:30;16.80;99.90
40249;DHT22;25969;49.970;11.062;2022-10-16T07:04:31;16.90;99.90
40249;DHT22;25969;49.970;11.062;2022-10-16T07:14:31;17.10;99.90
40249;DHT22;25969;49.970;11.062;2022-10-16T07:24:32;17.30;99.90
40249;DHT22;25969;49.970;11.062;2022-10-16T07:34:33;17.30;99.90
40249;DHT22;25969;49.970;11.062;2022-10-16T07:44:33;17.30;99.90
40249;DHT22;25969;49.970;11.062;2022-10-16T07:54:34;17.50;99.90
40249;DHT22;25969;49.970;11.062;2022-10-16T08:04:35;17.70;99.90
40249;DHT22;25969;49.970;11.062;2022-10-16T08:14:35;18.20;99.90
40249;DHT22;25969;49.970;11.062;2022-10-16T08:24:36;19.10;99.90
40249;DHT22;25969;49.970;11.062;2022-10-16T08:34:37;19.20;99.90
40249;DHT22;25969;49.970;11.062;2022-10-16T08:44:54;22.50;99.90
40249;DHT22;25969;49.970;11.062;2022-10-16T08:54:59;22.10;99.80
40249;DHT22;25969;49.970;11.062;2022-10-16T09:15:49;20.50;99.90
40249;DHT22;25969;49.970;11.062;2022-10-16T09:25:53;20.30;99.90
40249;DHT22;25969;49.970;11.062;2022-10-16T09:35:56;21.30;99.90
40249;DHT22;25969;49.970;11.062;2022-10-16T09:56:33;19.90;99.90
40249;DHT22;25969;49.970;11.062;2022-10-16T10:16:49;20.60;99.90
40249;DHT22;25969;49.970;11.062;2022-10-16T10:27:03;20.40;99.90
40249;DHT22;25969;49.970;11.062;2022-10-16T10:37:45;20.60;99.90
40249;DHT22;25969;49.970;11.062;2022-10-16T11:29:25;22.30;98.70
40249;DHT22;25969;49.970;11.062;2022-10-16T11:39:29;23.20;96.60
40249;DHT22;25969;49.970;11.062;2022-10-16T11:49:32;21.10;99.90
40249;DHT22;25969;49.970;11.062;2022-10-16T11:59:58;19.20;99.90
40249;DHT22;25969;49.970;11.062;2022-10-16T12:10:11;18.10;99.90
40249;DHT22;25969;49.970;11.062;2022-10-16T12:30:24;20.90;99.90
40249;DHT22;25969;49.970;11.062;2022-10-16T12:40:31;25.30;99.90
40249;DHT22;25969;49.970;11.062;2022-10-16T12:50:38;30.70;75.70
40249;DHT22;25969;49.970;11.062;2022-10-16T13:00:48;30.90;74.50
40249;DHT22;25969;49.970;11.062;2022-10-16T13:11:05;32.70;62.10
40249;DHT22;25969;49.970;11.062;2022-10-16T13:31:33;33.30;56.70
40249;DHT22;25969;49.970;11.062;2022-10-16T13:41:34;32.90;54.90
40249;DHT22;25969;49.970;11.062;2022-10-16T13:51:35;31.00;59.50
40249;DHT22;25969;49.970;11.062;2022-10-16T14:11:54;31.50;55.70
40249;DHT22;25969;49.970;11.062;2022-10-16T14:21:56;31.50;56.40
40249;DHT22;25969;49.970;11.062;2022-10-16T14:32:00;30.40;57.50
40249;DHT22;25969;49.970;11.062;2022-10-16T14:42:01;29.80;59.50
40249;DHT22;25969;49.970;11.062;2022-10-16T14:52:08;28.00;65.20
40249;DHT22;25969;49.970;11.062;2022-10-16T15:02:32;22.10;91.30
40249;DHT22;25969;49.970;11.062;2022-10-16T15:12:34;19.90;99.90
40249;DHT22;25969;49.970;11.062;2022-10-16T15:22:35;19.30;99.90
40249;DHT22;25969;49.970;11.062;2022-10-16T15:32:35;18.80;99.90
40249;DHT22;25969;49.970;11.062;2022-10-16T15:42:36;18.60;99.90
40249;DHT22;25969;49.970;11.062;2022-10-16T15:52:38;18.40;99.90
40249;DHT22;25969;49.970;11.062;2022-10-16T16:02:40;18.00;99.90
40249;DHT22;25969;49.970;11.062;2022-10-16T16:12:41;17.50;99.90
40249;DHT22;25969;49.970;11.062;2022-10-16T16:22:42;17.30;99.90
40249;DHT22;25969;49.970;11.062;2022-10-16T16:32:43;16.90;99.90
40249;DHT22;25969;49.970;11.062;2022-10-16T16:42:44;16.80;99.90
40249;DHT22;25969;49.970;11.062;2022-10-16T16:52:45;16.80;99.90
40249;DHT22;25969;49.970;11.062;2022-10-16T17:02:49;17.00;99.90
40249;DHT22;25969;49.970;11.062;2022-10-16T17:12:50;17.30;99.90
40249;DHT22;25969;49.970;11.062;2022-10-16T17:22:51;17.50;99.90
40249;DHT22;25969;49.970;11.062;2022-10-16T17:32:51;17.80;99.90
40249;DHT22;25969;49.970;11.062;2022-10-16T17:42:52;17.90;99.90
40249;DHT22;25969;49.970;11.062;2022-10-16T17:52:53;18.30;99.90
40249;DHT22;25969;49.970;11.062;2022-10-16T18:02:54;18.60;99.90
40249;DHT22;25969;49.970;11.062;2022-10-16T18:12:54;18.00;99.90
40249;DHT22;25969;49.970;11.062;2022-10-16T18:22:56;17.80;99.90
40249;DHT22;25969;49.970;11.062;2022-10-16T18:32:57;17.10;99.90
40249;DHT22;25969;49.970;11.062;2022-10-16T18:42:58;16.90;99.90
40249;DHT22;25969;49.970;11.062;2022-10-16T18:52:59;16.50;99.90
40249;DHT22;25969;49.970;11.062;2022-10-16T19:03:00;16.20;99.90
40249;DHT22;25969;49.970;11.062;2022-10-16T19:13:00;16.30;99.90
40249;DHT22;25969;49.970;11.062;2022-10-16T19:23:01;16.70;99.90
40249;DHT22;25969;49.970;11.062;2022-10-16T19:33:03;16.50;99.90
40249;DHT22;25969;49.970;11.062;2022-10-16T19:43:04;16.40;99.90
40249;DHT22;25969;49.970;11.062;2022-10-16T19:53:05;16.60;99.90
40249;DHT22;25969;49.970;11.062;2022-10-16T20:03:06;16.40;99.90
40249;DHT22;25969;49.970;11.062;2022-10-16T20:13:06;16.40;99.90
40249;DHT22;25969;49.970;11.062;2022-10-16T20:23:08;16.20;99.90
40249;DHT22;25969;49.970;11.062;2022-10-16T20:33:10;16.10;99.90
40249;DHT22;25969;49.970;11.062;2022-10-16T20:43:13;16.20;99.90
40249;DHT22;25969;49.970;11.062;2022-10-16T20:53:14;16.00;99.90
40249;DHT22;25969;49.970;11.062;2022-10-16T21:03:15;15.90;99.90
40249;DHT22;25969;49.970;11.062;2022-10-16T21:13:16;15.60;99.90
40249;DHT22;25969;49.970;11.062;2022-10-16T21:23:17;15.20;99.90
40249;DHT22;25969;49.970;11.062;2022-10-16T21:33:17;15.50;99.90
40249;DHT22;25969;49.970;11.062;2022-10-16T21:43:19;15.40;99.90
40249;DHT22;25969;49.970;11.062;2022-10-16T21:53:19;15.50;99.90
